RJKB(METAR)
12/11 17:00
RJKB 110800Z 17014KT 9999 FEW010 SCT020 BKN030 23/22 Q1014 RMK
A2995=
戻る
トップページへ戻る
IMOC Co,.Ltd.